sensor_id;sensor_type;location;lat;lon;timestamp;P1;durP1;ratioP1;P2;durP2;ratioP2
50683;SDS011;36654;45.042;38.994;2023-07-20T00:01:07;26.27;;;16.73;;
50683;SDS011;36654;45.042;38.994;2023-07-20T00:03:33;22.38;;;15.88;;
50683;SDS011;36654;45.042;38.994;2023-07-20T00:05:59;19.98;;;17.33;;
50683;SDS011;36654;45.042;38.994;2023-07-20T00:08:24;20.65;;;16.35;;
50683;SDS011;36654;45.042;38.994;2023-07-20T00:10:50;23.50;;;17.58;;
50683;SDS011;36654;45.042;38.994;2023-07-20T00:13:16;19.25;;;17.25;;
50683;SDS011;36654;45.042;38.994;2023-07-20T00:15:43;22.38;;;17.08;;
50683;SDS011;36654;45.042;38.994;2023-07-20T00:18:09;21.48;;;18.05;;
50683;SDS011;36654;45.042;38.994;2023-07-20T00:20:34;22.17;;;16.70;;
50683;SDS011;36654;45.042;38.994;2023-07-20T00:23:00;18.38;;;16.08;;
50683;SDS011;36654;45.042;38.994;2023-07-20T00:25:26;18.95;;;16.83;;
50683;SDS011;36654;45.042;38.994;2023-07-20T00:27:51;20.92;;;16.65;;
50683;SDS011;36654;45.042;38.994;2023-07-20T00:30:18;22.80;;;17.33;;
50683;SDS011;36654;45.042;38.994;2023-07-20T00:32:44;20.83;;;17.90;;
50683;SDS011;36654;45.042;38.994;2023-07-20T00:35:10;18.73;;;16.13;;
50683;SDS011;36654;45.042;38.994;2023-07-20T00:37:36;21.13;;;16.17;;
50683;SDS011;36654;45.042;38.994;2023-07-20T00:40:02;21.23;;;18.52;;
50683;SDS011;36654;45.042;38.994;2023-07-20T00:42:32;18.85;;;16.38;;
50683;SDS011;36654;45.042;38.994;2023-07-20T00:44:59;22.95;;;17.77;;
50683;SDS011;36654;45.042;38.994;2023-07-20T00:47:25;21.20;;;17.10;;
50683;SDS011;36654;45.042;38.994;2023-07-20T00:49:52;18.33;;;16.35;;
50683;SDS011;36654;45.042;38.994;2023-07-20T00:52:18;22.73;;;17.15;;
50683;SDS011;36654;45.042;38.994;2023-07-20T00:54:46;20.08;;;15.52;;
50683;SDS011;36654;45.042;38.994;2023-07-20T00:57:15;22.10;;;18.15;;
50683;SDS011;36654;45.042;38.994;2023-07-20T00:59:42;18.92;;;16.83;;
50683;SDS011;36654;45.042;38.994;2023-07-20T01:02:08;21.98;;;18.27;;
50683;SDS011;36654;45.042;38.994;2023-07-20T01:04:34;20.77;;;17.88;;
50683;SDS011;36654;45.042;38.994;2023-07-20T01:07:03;19.58;;;16.73;;
50683;SDS011;36654;45.042;38.994;2023-07-20T01:09:44;20.88;;;16.48;;
50683;SDS011;36654;45.042;38.994;2023-07-20T01:12:22;21.10;;;16.55;;
50683;SDS011;36654;45.042;38.994;2023-07-20T01:15:16;18.90;;;15.80;;
50683;SDS011;36654;45.042;38.994;2023-07-20T01:17:42;19.23;;;16.77;;
50683;SDS011;36654;45.042;38.994;2023-07-20T01:20:10;22.25;;;17.83;;
50683;SDS011;36654;45.042;38.994;2023-07-20T01:25:34;21.13;;;16.77;;
50683;SDS011;36654;45.042;38.994;2023-07-20T01:33:54;22.45;;;17.08;;
50683;SDS011;36654;45.042;38.994;2023-07-20T01:36:22;22.63;;;20.08;;
50683;SDS011;36654;45.042;38.994;2023-07-20T01:38:50;23.48;;;17.52;;
50683;SDS011;36654;45.042;38.994;2023-07-20T01:41:17;22.20;;;18.55;;
50683;SDS011;36654;45.042;38.994;2023-07-20T01:43:44;24.05;;;19.52;;
50683;SDS011;36654;45.042;38.994;2023-07-20T01:46:12;26.40;;;19.40;;
50683;SDS011;36654;45.042;38.994;2023-07-20T01:48:38;27.15;;;21.70;;
50683;SDS011;36654;45.042;38.994;2023-07-20T01:51:03;25.70;;;20.40;;
50683;SDS011;36654;45.042;38.994;2023-07-20T01:53:29;24.98;;;18.95;;
50683;SDS011;36654;45.042;38.994;2023-07-20T01:55:56;21.27;;;16.83;;
50683;SDS011;36654;45.042;38.994;2023-07-20T01:58:22;23.08;;;18.63;;
50683;SDS011;36654;45.042;38.994;2023-07-20T02:00:48;25.13;;;19.52;;
50683;SDS011;36654;45.042;38.994;2023-07-20T02:03:14;24.55;;;20.33;;
50683;SDS011;36654;45.042;38.994;2023-07-20T02:05:41;22.05;;;18.80;;
50683;SDS011;36654;45.042;38.994;2023-07-20T02:08:08;25.20;;;18.98;;
50683;SDS011;36654;45.042;38.994;2023-07-20T02:10:34;23.00;;;19.08;;
50683;SDS011;36654;45.042;38.994;2023-07-20T02:13:00;22.35;;;18.23;;
50683;SDS011;36654;45.042;38.994;2023-07-20T02:15:26;29.85;;;19.90;;
50683;SDS011;36654;45.042;38.994;2023-07-20T02:17:52;23.92;;;18.33;;
50683;SDS011;36654;45.042;38.994;2023-07-20T02:20:18;21.33;;;16.65;;
50683;SDS011;36654;45.042;38.994;2023-07-20T02:22:44;18.13;;;15.15;;
50683;SDS011;36654;45.042;38.994;2023-07-20T02:25:10;21.52;;;15.32;;
50683;SDS011;36654;45.042;38.994;2023-07-20T02:27:36;21.15;;;17.42;;
50683;SDS011;36654;45.042;38.994;2023-07-20T02:30:02;22.15;;;15.82;;
50683;SDS011;36654;45.042;38.994;2023-07-20T02:32:29;17.38;;;14.60;;
50683;SDS011;36654;45.042;38.994;2023-07-20T02:34:56;21.60;;;14.77;;
50683;SDS011;36654;45.042;38.994;2023-07-20T02:37:22;19.40;;;14.15;;
50683;SDS011;36654;45.042;38.994;2023-07-20T02:39:48;18.55;;;14.90;;
50683;SDS011;36654;45.042;38.994;2023-07-20T02:42:14;15.40;;;13.82;;
50683;SDS011;36654;45.042;38.994;2023-07-20T02:44:39;19.48;;;15.70;;
50683;SDS011;36654;45.042;38.994;2023-07-20T02:47:05;16.75;;;14.60;;
50683;SDS011;36654;45.042;38.994;2023-07-20T02:49:31;18.83;;;15.77;;
50683;SDS011;36654;45.042;38.994;2023-07-20T02:51:57;23.65;;;15.25;;
50683;SDS011;36654;45.042;38.994;2023-07-20T02:54:22;18.98;;;16.38;;
50683;SDS011;36654;45.042;38.994;2023-07-20T02:56:48;17.70;;;15.15;;
50683;SDS011;36654;45.042;38.994;2023-07-20T02:59:14;19.30;;;15.30;;
50683;SDS011;36654;45.042;38.994;2023-07-20T03:01:40;18.30;;;16.17;;
50683;SDS011;36654;45.042;38.994;2023-07-20T03:04:07;21.73;;;16.67;;
50683;SDS011;36654;45.042;38.994;2023-07-20T03:06:35;19.20;;;17.13;;
50683;SDS011;36654;45.042;38.994;2023-07-20T03:09:01;20.73;;;16.10;;
50683;SDS011;36654;45.042;38.994;2023-07-20T03:11:28;22.35;;;15.13;;
50683;SDS011;36654;45.042;38.994;2023-07-20T03:13:54;18.55;;;16.05;;
50683;SDS011;36654;45.042;38.994;2023-07-20T03:16:20;19.10;;;15.60;;
50683;SDS011;36654;45.042;38.994;2023-07-20T03:18:45;18.58;;;16.30;;
50683;SDS011;36654;45.042;38.994;2023-07-20T03:21:11;17.85;;;15.48;;
50683;SDS011;36654;45.042;38.994;2023-07-20T03:23:37;17.02;;;15.07;;
50683;SDS011;36654;45.042;38.994;2023-07-20T03:26:03;20.98;;;16.08;;
50683;SDS011;36654;45.042;38.994;2023-07-20T03:28:29;18.13;;;15.20;;
50683;SDS011;36654;45.042;38.994;2023-07-20T03:30:58;22.77;;;15.85;;
50683;SDS011;36654;45.042;38.994;2023-07-20T03:33:28;21.58;;;15.43;;
50683;SDS011;36654;45.042;38.994;2023-07-20T03:35:54;19.50;;;15.50;;
50683;SDS011;36654;45.042;38.994;2023-07-20T03:38:21;20.35;;;14.77;;
50683;SDS011;36654;45.042;38.994;2023-07-20T03:40:54;20.27;;;16.13;;
50683;SDS011;36654;45.042;38.994;2023-07-20T03:43:20;20.92;;;14.70;;
50683;SDS011;36654;45.042;38.994;2023-07-20T03:45:46;14.57;;;13.05;;
50683;SDS011;36654;45.042;38.994;2023-07-20T03:48:13;16.77;;;13.15;;
50683;SDS011;36654;45.042;38.994;2023-07-20T03:50:40;15.88;;;14.10;;
50683;SDS011;36654;45.042;38.994;2023-07-20T03:53:06;17.63;;;13.90;;
50683;SDS011;36654;45.042;38.994;2023-07-20T03:55:32;15.20;;;12.65;;
50683;SDS011;36654;45.042;38.994;2023-07-20T03:57:57;15.98;;;12.30;;
50683;SDS011;36654;45.042;38.994;2023-07-20T04:00:23;16.25;;;11.10;;
50683;SDS011;36654;45.042;38.994;2023-07-20T04:02:49;17.05;;;11.05;;
50683;SDS011;36654;45.042;38.994;2023-07-20T04:05:14;17.23;;;11.10;;
50683;SDS011;36654;45.042;38.994;2023-07-20T04:07:40;17.20;;;12.07;;
50683;SDS011;36654;45.042;38.994;2023-07-20T04:10:08;13.85;;;6.85;;
50683;SDS011;36654;45.042;38.994;2023-07-20T04:12:34;13.13;;;9.10;;
50683;SDS011;36654;45.042;38.994;2023-07-20T04:15:00;12.98;;;6.30;;
50683;SDS011;36654;45.042;38.994;2023-07-20T04:17:26;12.43;;;7.55;;
50683;SDS011;36654;45.042;38.994;2023-07-20T04:19:52;11.52;;;8.63;;
50683;SDS011;36654;45.042;38.994;2023-07-20T04:22:17;10.73;;;7.60;;
50683;SDS011;36654;45.042;38.994;2023-07-20T04:24:43;11.85;;;7.60;;
50683;SDS011;36654;45.042;38.994;2023-07-20T04:27:08;13.82;;;9.30;;
50683;SDS011;36654;45.042;38.994;2023-07-20T04:29:34;12.43;;;7.53;;
50683;SDS011;36654;45.042;38.994;2023-07-20T04:31:59;8.68;;;6.15;;
50683;SDS011;36654;45.042;38.994;2023-07-20T04:34:25;10.20;;;5.30;;
50683;SDS011;36654;45.042;38.994;2023-07-20T04:36:51;9.88;;;4.53;;
50683;SDS011;36654;45.042;38.994;2023-07-20T04:39:16;8.55;;;4.72;;
50683;SDS011;36654;45.042;38.994;2023-07-20T04:41:42;9.82;;;5.38;;
50683;SDS011;36654;45.042;38.994;2023-07-20T04:44:08;11.38;;;5.22;;
50683;SDS011;36654;45.042;38.994;2023-07-20T04:46:33;8.73;;;4.70;;
50683;SDS011;36654;45.042;38.994;2023-07-20T04:48:59;7.22;;;4.30;;
50683;SDS011;36654;45.042;38.994;2023-07-20T04:51:25;6.05;;;3.47;;
50683;SDS011;36654;45.042;38.994;2023-07-20T04:53:50;14.88;;;3.78;;
50683;SDS011;36654;45.042;38.994;2023-07-20T04:56:16;10.80;;;3.63;;
50683;SDS011;36654;45.042;38.994;2023-07-20T04:58:42;5.95;;;3.30;;
50683;SDS011;36654;45.042;38.994;2023-07-20T05:01:10;4.00;;;3.22;;
50683;SDS011;36654;45.042;38.994;2023-07-20T05:03:36;6.60;;;3.67;;
50683;SDS011;36654;45.042;38.994;2023-07-20T05:06:04;6.88;;;3.40;;
50683;SDS011;36654;45.042;38.994;2023-07-20T05:08:30;6.63;;;3.78;;
50683;SDS011;36654;45.042;38.994;2023-07-20T05:10:56;9.70;;;3.22;;
50683;SDS011;36654;45.042;38.994;2023-07-20T05:13:21;8.40;;;4.13;;
50683;SDS011;36654;45.042;38.994;2023-07-20T05:15:50;6.70;;;3.90;;
50683;SDS011;36654;45.042;38.994;2023-07-20T05:18:19;7.60;;;3.60;;
50683;SDS011;36654;45.042;38.994;2023-07-20T05:20:48;10.60;;;3.97;;
50683;SDS011;36654;45.042;38.994;2023-07-20T05:23:14;30.80;;;21.63;;
50683;SDS011;36654;45.042;38.994;2023-07-20T05:25:43;10.73;;;3.22;;
50683;SDS011;36654;45.042;38.994;2023-07-20T05:28:09;8.43;;;3.63;;
50683;SDS011;36654;45.042;38.994;2023-07-20T05:30:34;7.88;;;4.22;;
50683;SDS011;36654;45.042;38.994;2023-07-20T05:33:00;7.05;;;3.22;;
50683;SDS011;36654;45.042;38.994;2023-07-20T05:35:26;10.73;;;3.80;;
50683;SDS011;36654;45.042;38.994;2023-07-20T05:37:52;6.85;;;3.60;;
50683;SDS011;36654;45.042;38.994;2023-07-20T05:40:17;6.05;;;3.20;;
50683;SDS011;36654;45.042;38.994;2023-07-20T05:42:44;7.65;;;4.22;;
50683;SDS011;36654;45.042;38.994;2023-07-20T05:45:13;4.43;;;3.05;;
50683;SDS011;36654;45.042;38.994;2023-07-20T05:47:40;4.10;;;2.70;;
50683;SDS011;36654;45.042;38.994;2023-07-20T05:50:06;7.13;;;3.00;;
50683;SDS011;36654;45.042;38.994;2023-07-20T05:52:32;7.10;;;3.33;;
50683;SDS011;36654;45.042;38.994;2023-07-20T05:54:58;3.63;;;3.10;;
50683;SDS011;36654;45.042;38.994;2023-07-20T05:57:31;4.00;;;3.00;;
50683;SDS011;36654;45.042;38.994;2023-07-20T05:59:57;6.22;;;3.35;;
50683;SDS011;36654;45.042;38.994;2023-07-20T06:02:23;5.38;;;3.25;;
50683;SDS011;36654;45.042;38.994;2023-07-20T06:04:48;6.28;;;3.50;;
50683;SDS011;36654;45.042;38.994;2023-07-20T06:07:14;6.15;;;2.92;;
50683;SDS011;36654;45.042;38.994;2023-07-20T06:09:40;10.52;;;3.70;;
50683;SDS011;36654;45.042;38.994;2023-07-20T06:12:06;9.18;;;3.53;;
50683;SDS011;36654;45.042;38.994;2023-07-20T06:14:32;7.88;;;3.10;;
50683;SDS011;36654;45.042;38.994;2023-07-20T06:16:58;11.27;;;3.10;;
50683;SDS011;36654;45.042;38.994;2023-07-20T06:19:24;9.70;;;3.75;;
50683;SDS011;36654;45.042;38.994;2023-07-20T06:21:50;7.97;;;3.45;;
50683;SDS011;36654;45.042;38.994;2023-07-20T06:24:16;10.48;;;3.17;;
50683;SDS011;36654;45.042;38.994;2023-07-20T06:26:42;6.55;;;3.40;;
50683;SDS011;36654;45.042;38.994;2023-07-20T06:29:08;5.20;;;3.08;;
50683;SDS011;36654;45.042;38.994;2023-07-20T06:31:36;9.75;;;3.15;;
50683;SDS011;36654;45.042;38.994;2023-07-20T06:34:02;6.25;;;3.45;;
50683;SDS011;36654;45.042;38.994;2023-07-20T06:36:28;6.80;;;3.45;;
50683;SDS011;36654;45.042;38.994;2023-07-20T06:38:55;6.03;;;4.13;;
50683;SDS011;36654;45.042;38.994;2023-07-20T06:41:21;10.45;;;4.15;;
50683;SDS011;36654;45.042;38.994;2023-07-20T06:43:47;7.38;;;3.20;;
50683;SDS011;36654;45.042;38.994;2023-07-20T06:46:13;6.90;;;3.35;;
50683;SDS011;36654;45.042;38.994;2023-07-20T06:48:39;6.03;;;3.70;;
50683;SDS011;36654;45.042;38.994;2023-07-20T06:51:04;5.32;;;4.20;;
50683;SDS011;36654;45.042;38.994;2023-07-20T06:53:30;9.63;;;3.70;;
50683;SDS011;36654;45.042;38.994;2023-07-20T06:55:56;6.90;;;4.78;;
50683;SDS011;36654;45.042;38.994;2023-07-20T06:58:22;4.97;;;3.50;;
50683;SDS011;36654;45.042;38.994;2023-07-20T07:00:48;7.38;;;3.92;;
50683;SDS011;36654;45.042;38.994;2023-07-20T07:03:14;8.52;;;4.00;;
50683;SDS011;36654;45.042;38.994;2023-07-20T07:05:40;6.07;;;3.67;;
50683;SDS011;36654;45.042;38.994;2023-07-20T07:08:05;8.40;;;3.90;;
50683;SDS011;36654;45.042;38.994;2023-07-20T07:10:31;8.20;;;3.58;;
50683;SDS011;36654;45.042;38.994;2023-07-20T07:12:57;8.00;;;3.50;;
50683;SDS011;36654;45.042;38.994;2023-07-20T07:15:23;6.38;;;3.30;;
50683;SDS011;36654;45.042;38.994;2023-07-20T07:17:49;8.55;;;3.80;;
50683;SDS011;36654;45.042;38.994;2023-07-20T07:20:15;8.88;;;3.40;;
50683;SDS011;36654;45.042;38.994;2023-07-20T07:22:41;8.95;;;3.38;;
50683;SDS011;36654;45.042;38.994;2023-07-20T07:25:09;10.93;;;3.88;;
50683;SDS011;36654;45.042;38.994;2023-07-20T07:27:35;7.78;;;3.97;;
50683;SDS011;36654;45.042;38.994;2023-07-20T07:30:01;7.13;;;3.78;;
50683;SDS011;36654;45.042;38.994;2023-07-20T07:32:27;7.20;;;3.75;;
50683;SDS011;36654;45.042;38.994;2023-07-20T07:34:52;10.25;;;3.78;;
50683;SDS011;36654;45.042;38.994;2023-07-20T07:37:18;10.95;;;3.85;;
50683;SDS011;36654;45.042;38.994;2023-07-20T07:39:45;9.10;;;3.33;;
50683;SDS011;36654;45.042;38.994;2023-07-20T07:42:13;8.75;;;2.60;;
50683;SDS011;36654;45.042;38.994;2023-07-20T07:47:04;4.30;;;2.60;;
50683;SDS011;36654;45.042;38.994;2023-07-20T07:49:30;9.52;;;3.15;;
50683;SDS011;36654;45.042;38.994;2023-07-20T07:51:56;9.77;;;3.65;;
50683;SDS011;36654;45.042;38.994;2023-07-20T07:54:22;4.95;;;3.38;;
50683;SDS011;36654;45.042;38.994;2023-07-20T07:56:48;6.82;;;3.35;;
50683;SDS011;36654;45.042;38.994;2023-07-20T07:59:13;6.13;;;3.40;;
50683;SDS011;36654;45.042;38.994;2023-07-20T08:01:39;5.88;;;3.28;;
50683;SDS011;36654;45.042;38.994;2023-07-20T08:04:05;8.77;;;3.60;;
50683;SDS011;36654;45.042;38.994;2023-07-20T08:06:30;3.60;;;2.50;;
50683;SDS011;36654;45.042;38.994;2023-07-20T08:08:56;4.15;;;3.00;;
50683;SDS011;36654;45.042;38.994;2023-07-20T08:11:22;5.95;;;3.08;;
50683;SDS011;36654;45.042;38.994;2023-07-20T08:13:48;2.63;;;2.50;;
50683;SDS011;36654;45.042;38.994;2023-07-20T08:16:14;4.68;;;2.30;;
50683;SDS011;36654;45.042;38.994;2023-07-20T08:18:39;4.40;;;2.45;;
50683;SDS011;36654;45.042;38.994;2023-07-20T08:21:05;3.78;;;2.72;;
50683;SDS011;36654;45.042;38.994;2023-07-20T08:23:31;5.95;;;2.72;;
50683;SDS011;36654;45.042;38.994;2023-07-20T08:25:56;3.60;;;2.63;;
50683;SDS011;36654;45.042;38.994;2023-07-20T08:28:26;7.47;;;2.40;;
50683;SDS011;36654;45.042;38.994;2023-07-20T08:30:52;5.85;;;3.22;;
50683;SDS011;36654;45.042;38.994;2023-07-20T08:33:18;7.47;;;3.25;;
50683;SDS011;36654;45.042;38.994;2023-07-20T08:35:47;6.63;;;3.72;;
50683;SDS011;36654;45.042;38.994;2023-07-20T08:38:13;3.63;;;2.60;;
50683;SDS011;36654;45.042;38.994;2023-07-20T08:40:42;2.58;;;2.38;;
50683;SDS011;36654;45.042;38.994;2023-07-20T08:43:10;6.75;;;3.80;;
50683;SDS011;36654;45.042;38.994;2023-07-20T08:45:37;7.45;;;3.28;;
50683;SDS011;36654;45.042;38.994;2023-07-20T08:48:05;5.50;;;3.70;;
50683;SDS011;36654;45.042;38.994;2023-07-20T08:50:31;7.65;;;3.50;;
50683;SDS011;36654;45.042;38.994;2023-07-20T08:52:58;5.95;;;3.28;;
50683;SDS011;36654;45.042;38.994;2023-07-20T08:55:28;5.85;;;3.47;;
50683;SDS011;36654;45.042;38.994;2023-07-20T08:57:54;8.95;;;3.45;;
50683;SDS011;36654;45.042;38.994;2023-07-20T09:00:21;7.10;;;3.30;;
50683;SDS011;36654;45.042;38.994;2023-07-20T09:02:48;9.25;;;3.58;;
50683;SDS011;36654;45.042;38.994;2023-07-20T09:05:15;5.47;;;2.50;;
50683;SDS011;36654;45.042;38.994;2023-07-20T09:07:41;4.13;;;3.20;;
50683;SDS011;36654;45.042;38.994;2023-07-20T09:10:07;6.38;;;2.78;;
50683;SDS011;36654;45.042;38.994;2023-07-20T09:12:40;7.93;;;3.20;;
50683;SDS011;36654;45.042;38.994;2023-07-20T09:15:09;4.55;;;3.45;;
50683;SDS011;36654;45.042;38.994;2023-07-20T09:17:36;4.60;;;2.83;;
50683;SDS011;36654;45.042;38.994;2023-07-20T09:20:03;5.45;;;3.33;;
50683;SDS011;36654;45.042;38.994;2023-07-20T09:22:33;6.97;;;3.78;;
50683;SDS011;36654;45.042;38.994;2023-07-20T09:24:59;10.10;;;3.30;;
50683;SDS011;36654;45.042;38.994;2023-07-20T09:27:46;5.93;;;3.78;;
50683;SDS011;36654;45.042;38.994;2023-07-20T09:30:15;5.45;;;3.22;;
50683;SDS011;36654;45.042;38.994;2023-07-20T09:35:17;6.00;;;2.53;;
50683;SDS011;36654;45.042;38.994;2023-07-20T09:37:48;5.38;;;3.00;;
50683;SDS011;36654;45.042;38.994;2023-07-20T09:40:17;8.30;;;3.33;;
50683;SDS011;36654;45.042;38.994;2023-07-20T09:42:44;10.57;;;3.55;;
50683;SDS011;36654;45.042;38.994;2023-07-20T09:45:10;5.65;;;3.17;;
50683;SDS011;36654;45.042;38.994;2023-07-20T09:47:37;8.18;;;3.63;;
50683;SDS011;36654;45.042;38.994;2023-07-20T09:50:06;7.88;;;2.90;;
50683;SDS011;36654;45.042;38.994;2023-07-20T09:52:40;15.18;;;3.42;;
50683;SDS011;36654;45.042;38.994;2023-07-20T09:55:09;6.25;;;3.25;;
50683;SDS011;36654;45.042;38.994;2023-07-20T09:57:36;6.30;;;3.10;;
50683;SDS011;36654;45.042;38.994;2023-07-20T10:00:03;3.40;;;2.55;;
50683;SDS011;36654;45.042;38.994;2023-07-20T10:02:41;6.13;;;2.83;;
50683;SDS011;36654;45.042;38.994;2023-07-20T10:05:10;3.65;;;2.67;;
50683;SDS011;36654;45.042;38.994;2023-07-20T10:07:40;6.72;;;2.70;;
50683;SDS011;36654;45.042;38.994;2023-07-20T10:10:11;5.35;;;3.22;;
50683;SDS011;36654;45.042;38.994;2023-07-20T10:12:39;5.60;;;3.30;;
50683;SDS011;36654;45.042;38.994;2023-07-20T10:18:07;6.45;;;3.22;;
50683;SDS011;36654;45.042;38.994;2023-07-20T10:20:39;3.88;;;2.72;;
50683;SDS011;36654;45.042;38.994;2023-07-20T10:23:09;6.22;;;2.75;;
50683;SDS011;36654;45.042;38.994;2023-07-20T10:25:38;4.35;;;3.13;;
50683;SDS011;36654;45.042;38.994;2023-07-20T10:28:07;5.35;;;2.88;;
50683;SDS011;36654;45.042;38.994;2023-07-20T10:30:36;4.63;;;2.33;;
50683;SDS011;36654;45.042;38.994;2023-07-20T10:33:04;4.28;;;3.00;;
50683;SDS011;36654;45.042;38.994;2023-07-20T10:35:30;5.60;;;2.55;;
50683;SDS011;36654;45.042;38.994;2023-07-20T10:38:04;4.20;;;2.70;;
50683;SDS011;36654;45.042;38.994;2023-07-20T10:40:34;4.38;;;2.50;;
50683;SDS011;36654;45.042;38.994;2023-07-20T10:43:04;3.05;;;2.75;;
50683;SDS011;36654;45.042;38.994;2023-07-20T10:45:35;3.78;;;2.80;;
50683;SDS011;36654;45.042;38.994;2023-07-20T10:48:20;3.67;;;2.55;;
50683;SDS011;36654;45.042;38.994;2023-07-20T10:53:34;9.70;;;2.50;;
50683;SDS011;36654;45.042;38.994;2023-07-20T10:56:07;4.03;;;2.42;;
50683;SDS011;36654;45.042;38.994;2023-07-20T10:58:40;5.13;;;3.00;;
50683;SDS011;36654;45.042;38.994;2023-07-20T11:01:07;7.25;;;2.55;;
50683;SDS011;36654;45.042;38.994;2023-07-20T11:03:35;4.70;;;2.97;;
50683;SDS011;36654;45.042;38.994;2023-07-20T11:09:06;3.30;;;2.70;;
50683;SDS011;36654;45.042;38.994;2023-07-20T11:11:38;3.13;;;2.40;;
50683;SDS011;36654;45.042;38.994;2023-07-20T11:14:26;3.97;;;2.50;;
50683;SDS011;36654;45.042;38.994;2023-07-20T11:16:52;3.78;;;2.00;;
50683;SDS011;36654;45.042;38.994;2023-07-20T11:19:23;3.95;;;2.20;;
50683;SDS011;36654;45.042;38.994;2023-07-20T11:21:51;3.90;;;2.40;;
50683;SDS011;36654;45.042;38.994;2023-07-20T11:24:17;3.45;;;2.20;;
50683;SDS011;36654;45.042;38.994;2023-07-20T11:26:44;2.80;;;2.60;;
50683;SDS011;36654;45.042;38.994;2023-07-20T11:29:10;4.93;;;2.35;;
50683;SDS011;36654;45.042;38.994;2023-07-20T11:31:37;2.35;;;2.13;;
50683;SDS011;36654;45.042;38.994;2023-07-20T11:34:11;3.90;;;2.70;;
50683;SDS011;36654;45.042;38.994;2023-07-20T11:36:39;4.60;;;2.50;;
50683;SDS011;36654;45.042;38.994;2023-07-20T11:39:07;3.08;;;2.42;;
50683;SDS011;36654;45.042;38.994;2023-07-20T11:41:36;5.25;;;2.67;;
50683;SDS011;36654;45.042;38.994;2023-07-20T11:44:04;4.25;;;2.50;;
50683;SDS011;36654;45.042;38.994;2023-07-20T11:46:31;3.38;;;2.85;;
50683;SDS011;36654;45.042;38.994;2023-07-20T11:49:00;4.32;;;2.65;;
50683;SDS011;36654;45.042;38.994;2023-07-20T11:51:31;3.85;;;2.80;;
50683;SDS011;36654;45.042;38.994;2023-07-20T11:53:57;4.00;;;2.50;;
50683;SDS011;36654;45.042;38.994;2023-07-20T11:56:26;3.40;;;2.22;;
50683;SDS011;36654;45.042;38.994;2023-07-20T11:58:55;5.00;;;3.05;;
50683;SDS011;36654;45.042;38.994;2023-07-20T12:01:24;5.03;;;2.47;;
50683;SDS011;36654;45.042;38.994;2023-07-20T12:03:55;4.22;;;2.30;;
50683;SDS011;36654;45.042;38.994;2023-07-20T12:06:25;2.60;;;2.35;;
50683;SDS011;36654;45.042;38.994;2023-07-20T12:08:56;3.10;;;2.35;;
50683;SDS011;36654;45.042;38.994;2023-07-20T12:14:02;6.93;;;2.50;;
50683;SDS011;36654;45.042;38.994;2023-07-20T12:16:29;4.18;;;2.40;;
50683;SDS011;36654;45.042;38.994;2023-07-20T12:19:11;5.03;;;2.20;;
50683;SDS011;36654;45.042;38.994;2023-07-20T12:21:38;3.85;;;2.70;;
50683;SDS011;36654;45.042;38.994;2023-07-20T12:26:33;2.50;;;2.25;;
50683;SDS011;36654;45.042;38.994;2023-07-20T12:28:59;3.80;;;2.30;;
50683;SDS011;36654;45.042;38.994;2023-07-20T12:31:26;3.50;;;2.50;;
50683;SDS011;36654;45.042;38.994;2023-07-20T12:33:52;2.75;;;2.13;;
50683;SDS011;36654;45.042;38.994;2023-07-20T12:36:20;5.03;;;2.45;;
50683;SDS011;36654;45.042;38.994;2023-07-20T12:38:46;4.05;;;2.50;;
50683;SDS011;36654;45.042;38.994;2023-07-20T12:41:12;4.82;;;2.55;;
50683;SDS011;36654;45.042;38.994;2023-07-20T12:43:39;5.40;;;2.47;;
50683;SDS011;36654;45.042;38.994;2023-07-20T12:46:05;3.47;;;2.80;;
50683;SDS011;36654;45.042;38.994;2023-07-20T12:48:31;5.28;;;2.63;;
50683;SDS011;36654;45.042;38.994;2023-07-20T12:50:57;4.97;;;2.58;;
50683;SDS011;36654;45.042;38.994;2023-07-20T12:53:23;6.22;;;2.60;;
50683;SDS011;36654;45.042;38.994;2023-07-20T12:55:49;3.50;;;2.50;;
50683;SDS011;36654;45.042;38.994;2023-07-20T12:58:14;3.97;;;2.47;;
50683;SDS011;36654;45.042;38.994;2023-07-20T13:00:40;4.40;;;2.50;;
50683;SDS011;36654;45.042;38.994;2023-07-20T13:03:06;6.72;;;2.72;;
50683;SDS011;36654;45.042;38.994;2023-07-20T13:05:33;5.10;;;2.42;;
50683;SDS011;36654;45.042;38.994;2023-07-20T13:08:00;3.63;;;2.55;;
50683;SDS011;36654;45.042;38.994;2023-07-20T13:10:26;3.50;;;2.28;;
50683;SDS011;36654;45.042;38.994;2023-07-20T13:12:52;6.03;;;2.70;;
50683;SDS011;36654;45.042;38.994;2023-07-20T13:15:17;5.97;;;2.28;;
50683;SDS011;36654;45.042;38.994;2023-07-20T13:17:44;3.45;;;2.25;;
50683;SDS011;36654;45.042;38.994;2023-07-20T13:20:11;2.30;;;2.10;;
50683;SDS011;36654;45.042;38.994;2023-07-20T13:22:39;6.53;;;2.47;;
50683;SDS011;36654;45.042;38.994;2023-07-20T13:25:06;3.72;;;2.13;;
50683;SDS011;36654;45.042;38.994;2023-07-20T13:27:33;3.58;;;2.40;;
50683;SDS011;36654;45.042;38.994;2023-07-20T13:29:59;2.47;;;2.28;;
50683;SDS011;36654;45.042;38.994;2023-07-20T13:32:31;2.45;;;1.95;;
50683;SDS011;36654;45.042;38.994;2023-07-20T13:34:57;3.85;;;2.58;;
50683;SDS011;36654;45.042;38.994;2023-07-20T13:37:23;4.25;;;2.50;;
50683;SDS011;36654;45.042;38.994;2023-07-20T13:39:48;3.70;;;2.55;;
50683;SDS011;36654;45.042;38.994;2023-07-20T13:42:14;3.58;;;2.35;;
50683;SDS011;36654;45.042;38.994;2023-07-20T13:44:40;5.15;;;2.28;;
50683;SDS011;36654;45.042;38.994;2023-07-20T13:47:06;3.42;;;2.78;;
50683;SDS011;36654;45.042;38.994;2023-07-20T13:49:32;3.08;;;2.13;;
50683;SDS011;36654;45.042;38.994;2023-07-20T13:51:57;3.83;;;2.70;;
50683;SDS011;36654;45.042;38.994;2023-07-20T13:54:23;2.92;;;2.72;;
50683;SDS011;36654;45.042;38.994;2023-07-20T13:56:49;4.57;;;2.47;;
50683;SDS011;36654;45.042;38.994;2023-07-20T13:59:15;7.13;;;2.17;;
50683;SDS011;36654;45.042;38.994;2023-07-20T14:01:41;2.53;;;2.17;;
50683;SDS011;36654;45.042;38.994;2023-07-20T14:04:07;6.63;;;2.50;;
50683;SDS011;36654;45.042;38.994;2023-07-20T14:06:34;4.10;;;2.47;;
50683;SDS011;36654;45.042;38.994;2023-07-20T14:09:00;6.38;;;2.80;;
50683;SDS011;36654;45.042;38.994;2023-07-20T14:11:26;2.95;;;2.00;;
50683;SDS011;36654;45.042;38.994;2023-07-20T14:13:52;6.88;;;2.40;;
50683;SDS011;36654;45.042;38.994;2023-07-20T14:16:19;3.22;;;2.33;;
50683;SDS011;36654;45.042;38.994;2023-07-20T14:18:45;4.88;;;2.58;;
50683;SDS011;36654;45.042;38.994;2023-07-20T14:21:17;7.68;;;2.65;;
50683;SDS011;36654;45.042;38.994;2023-07-20T14:23:48;5.53;;;2.55;;
50683;SDS011;36654;45.042;38.994;2023-07-20T14:26:15;4.80;;;2.50;;
50683;SDS011;36654;45.042;38.994;2023-07-20T14:28:42;5.00;;;2.65;;
50683;SDS011;36654;45.042;38.994;2023-07-20T14:31:07;4.32;;;3.08;;
50683;SDS011;36654;45.042;38.994;2023-07-20T14:33:33;4.47;;;3.28;;
50683;SDS011;36654;45.042;38.994;2023-07-20T14:35:59;4.40;;;2.38;;
50683;SDS011;36654;45.042;38.994;2023-07-20T14:38:26;4.65;;;2.30;;
50683;SDS011;36654;45.042;38.994;2023-07-20T14:40:55;4.65;;;2.40;;
50683;SDS011;36654;45.042;38.994;2023-07-20T14:43:21;4.40;;;2.70;;
50683;SDS011;36654;45.042;38.994;2023-07-20T14:45:47;4.93;;;2.50;;
50683;SDS011;36654;45.042;38.994;2023-07-20T14:48:13;2.20;;;1.98;;
50683;SDS011;36654;45.042;38.994;2023-07-20T14:50:38;6.10;;;2.00;;
50683;SDS011;36654;45.042;38.994;2023-07-20T14:53:04;2.63;;;2.15;;